Prevelis — SYDL — position and weather

sailwx.info

Track history (hours):
 
Tides and Currents Weather Stations Pressure Air Temp Water Temp Dewpoint Dewpoint Depression Visibility Wind Speed Wind Dir Waves Ship Positions

Prevelis

Last reported at 2017-Mar-28 15:33 UTC. Time now 2017-Mar-28 15:59 UTC.
Position N 37°57' E 023°38'.

Length 143 m; draft 5.5 m.

Type: Passenger vessel. MMSI: 239297000.

Date/timePositionNaut miles runAvg speedWind from/ knotsBaromVisibWave heightAir tempDewpointWater temp
2017-Mar-28 15:33N 37°57' E 023°38'0 0.0
2017-Mar-28 14:33N 37°57' E 023°38'0 0.0
2017-Mar-28 13:33N 37°57' E 023°38'0 0.0
2017-Mar-28 12:33N 37°57' E 023°38'0 0.0
2017-Mar-28 11:33N 37°57' E 023°38'0 0.0
2017-Mar-28 10:33N 37°57' E 023°38'0 0.0
2017-Mar-28 09:33N 37°57' E 023°38'0 0.0
2017-Mar-28 08:33N 37°57' E 023°38'0 0.0
2017-Mar-28 07:33N 37°57' E 023°38'0 0.0
2017-Mar-28 06:33N 37°57' E 023°38'0 0.0
2017-Mar-28 05:33N 37°57' E 023°38'0 0.0
2017-Mar-28 04:33N 37°57' E 023°38'0 0.0
2017-Mar-28 03:33N 37°57' E 023°38'0 0.0
2017-Mar-28 02:33N 37°57' E 023°38'0 0.0
2017-Mar-28 01:33N 37°57' E 023°38'0 0.0
2017-Mar-28 00:33N 37°57' E 023°38'0 0.0
2017-Mar-27 23:33N 37°57' E 023°38'0 0.0
2017-Mar-27 22:33N 37°57' E 023°38'0 0.0
2017-Mar-27 21:33N 37°57' E 023°38'0 0.0
2017-Mar-27 20:33N 37°57' E 023°38'0 0.0
2017-Mar-27 19:33N 37°57' E 023°38'0 0.0
2017-Mar-27 18:33N 37°57' E 023°38'0 0.0
2017-Mar-27 17:33N 37°57' E 023°38'0 0.0
2017-Mar-27 16:33N 37°57' E 023°38'0 0.0
2017-Mar-27 15:33N 37°57' E 023°38'0 0.0
2017-Mar-27 14:33N 37°57' E 023°38'0 0.0
2017-Mar-27 13:33N 37°57' E 023°38'0 0.0
2017-Mar-27 12:33N 37°57' E 023°38'0 0.0
2017-Mar-27 11:34N 37°57' E 023°38'0 0.0
2017-Mar-27 10:33N 37°57' E 023°38'0 0.0
2017-Mar-27 09:34N 37°57' E 023°38'7 7.2
2017-Mar-27 08:33N 37°50' E 023°40'  
2017-Mar-24 17:34N 37°38' E 023°43'1616.4
2017-Mar-24 16:34N 37°54' E 023°37'2 2.3
2017-Mar-24 15:33N 37°56' E 023°38'0 0.0
2017-Mar-24 14:33N 37°56' E 023°38'0 0.0
2017-Mar-24 13:33N 37°56' E 023°38'0 0.0
2017-Mar-24 12:33N 37°56' E 023°38'0 0.0
2017-Mar-24 11:33N 37°56' E 023°38'0 0.0
2017-Mar-24 10:33N 37°56' E 023°38'0 0.0
2017-Mar-24 09:33N 37°56' E 023°38'0 0.0
2017-Mar-24 08:33N 37°56' E 023°38'0 0.0
2017-Mar-24 07:33N 37°56' E 023°38'0 0.0
2017-Mar-24 06:33N 37°56' E 023°38'2 2.0
2017-Mar-24 05:33N 37°55' E 023°37'1716.9
2017-Mar-24 04:33N 37°39' E 023°46'2316.9
2017-Mar-24 03:13N 37°20' E 024°01'  
2017-Mar-21 20:30N 37°30' E 023°50'1617.2
2017-Mar-21 19:33N 37°44' E 023°40'13 3.2
2017-Mar-21 15:29N 37°56' E 023°38'0 0.0
2017-Mar-21 11:28N 37°56' E 023°38'0 0.0
2017-Mar-20 18:09N 37°56' E 023°38'0 0.0
2017-Mar-20 17:30N 37°56' E 023°38'0 0.0
2017-Mar-20 14:23N 37°56' E 023°38'0 0.0
2017-Mar-20 13:32N 37°56' E 023°38'0 0.0
2017-Mar-20 12:22N 37°56' E 023°38'0 0.0
2017-Mar-20 11:32N 37°56' E 023°38'0 0.0
2017-Mar-20 09:23N 37°56' E 023°38'1215.0
2017-Mar-20 08:33N 37°45' E 023°43'  
Track history (hours):
 
Tides and Currents Weather Stations Pressure Air Temp Water Temp Dewpoint Dewpoint Depression Visibility Wind Speed Wind Dir Waves Ship Positions

Prevelis

Last reported at 2017-Mar-28 15:33 UTC. Time now 2017-Mar-28 15:59 UTC.
Position N 37°57' E 023°38'.

Length 143 m; draft 5.5 m.

Type: Passenger vessel. MMSI: 239297000.

Date/timePositionNaut miles runAvg speedWind from/ knotsBaromVisibWave heightAir tempDewpointWater temp
2017-Mar-28 15:33N 37°57' E 023°38'0 0.0
2017-Mar-28 14:33N 37°57' E 023°38'0 0.0
2017-Mar-28 13:33N 37°57' E 023°38'0 0.0
2017-Mar-28 12:33N 37°57' E 023°38'0 0.0
2017-Mar-28 11:33N 37°57' E 023°38'0 0.0
2017-Mar-28 10:33N 37°57' E 023°38'0 0.0
2017-Mar-28 09:33N 37°57' E 023°38'0 0.0
2017-Mar-28 08:33N 37°57' E 023°38'0 0.0
2017-Mar-28 07:33N 37°57' E 023°38'0 0.0
2017-Mar-28 06:33N 37°57' E 023°38'0 0.0
2017-Mar-28 05:33N 37°57' E 023°38'0 0.0
2017-Mar-28 04:33N 37°57' E 023°38'0 0.0
2017-Mar-28 03:33N 37°57' E 023°38'0 0.0
2017-Mar-28 02:33N 37°57' E 023°38'0 0.0
2017-Mar-28 01:33N 37°57' E 023°38'0 0.0
2017-Mar-28 00:33N 37°57' E 023°38'0 0.0
2017-Mar-27 23:33N 37°57' E 023°38'0 0.0
2017-Mar-27 22:33N 37°57' E 023°38'0 0.0
2017-Mar-27 21:33N 37°57' E 023°38'0 0.0
2017-Mar-27 20:33N 37°57' E 023°38'0 0.0
2017-Mar-27 19:33N 37°57' E 023°38'0 0.0
2017-Mar-27 18:33N 37°57' E 023°38'0 0.0
2017-Mar-27 17:33N 37°57' E 023°38'0 0.0
2017-Mar-27 16:33N 37°57' E 023°38'0 0.0
2017-Mar-27 15:33N 37°57' E 023°38'0 0.0
2017-Mar-27 14:33N 37°57' E 023°38'0 0.0
2017-Mar-27 13:33N 37°57' E 023°38'0 0.0
2017-Mar-27 12:33N 37°57' E 023°38'0 0.0
2017-Mar-27 11:34N 37°57' E 023°38'0 0.0
2017-Mar-27 10:33N 37°57' E 023°38'0 0.0
2017-Mar-27 09:34N 37°57' E 023°38'7 7.2
2017-Mar-27 08:33N 37°50' E 023°40'  
2017-Mar-24 17:34N 37°38' E 023°43'1616.4
2017-Mar-24 16:34N 37°54' E 023°37'2 2.3
2017-Mar-24 15:33N 37°56' E 023°38'0 0.0
2017-Mar-24 14:33N 37°56' E 023°38'0 0.0
2017-Mar-24 13:33N 37°56' E 023°38'0 0.0
2017-Mar-24 12:33N 37°56' E 023°38'0 0.0
2017-Mar-24 11:33N 37°56' E 023°38'0 0.0
2017-Mar-24 10:33N 37°56' E 023°38'0 0.0
2017-Mar-24 09:33N 37°56' E 023°38'0 0.0
2017-Mar-24 08:33N 37°56' E 023°38'0 0.0
2017-Mar-24 07:33N 37°56' E 023°38'0 0.0
2017-Mar-24 06:33N 37°56' E 023°38'2 2.0
2017-Mar-24 05:33N 37°55' E 023°37'1716.9
2017-Mar-24 04:33N 37°39' E 023°46'2316.9
2017-Mar-24 03:13N 37°20' E 024°01'  
2017-Mar-21 20:30N 37°30' E 023°50'1617.2
2017-Mar-21 19:33N 37°44' E 023°40'13 3.2
2017-Mar-21 15:29N 37°56' E 023°38'0 0.0
2017-Mar-21 11:28N 37°56' E 023°38'0 0.0
2017-Mar-20 18:09N 37°56' E 023°38'0 0.0
2017-Mar-20 17:30N 37°56' E 023°38'0 0.0
2017-Mar-20 14:23N 37°56' E 023°38'0 0.0
2017-Mar-20 13:32N 37°56' E 023°38'0 0.0
2017-Mar-20 12:22N 37°56' E 023°38'0 0.0
2017-Mar-20 11:32N 37°56' E 023°38'0 0.0
2017-Mar-20 09:23N 37°56' E 023°38'1215.0
2017-Mar-20 08:33N 37°45' E 023°43'  

Dump ship's entire track history